Date,TemperatureHighF,TemperatureAvgF,TemperatureLowF,DewpointHighF,DewpointAvgF,DewpointLowF,HumidityHigh,HumidityAvg,HumidityLow,PressureMaxIn,PressureMinIn,WindSpeedMaxMPH,WindSpeedAvgMPH,GustSpeedMaxMPH,PrecipitationSumIn
2013-1-1,49.3,46.4,42.3,48.4,42.8,33.3,97,84,58,30.08,29.87,3,0,3,1.17
2013-1-2,49.1,44.3,39.4,48.5,42.2,37.3,97,90,80,30.09,29.84,13,5,13,0.05
2013-1-3,48.3,39.8,33.0,40.2,34.5,27.5,90,76,50,30.27,30.03,16,4,16,0.00
2013-1-4,49.1,36.5,26.9,31.3,25.9,23.0,83,58,28,30.33,30.22,18,4,18,0.00
2013-1-5,46.6,36.6,25.7,36.7,28.5,21.8,86,65,43,30.34,30.21,6,1,6,0.03
2013-1-6,47.3,41.1,38.2,40.4,36.4,32.8,86,78,64,30.22,30.05,21,9,21,0.01
2013-1-7,51.8,41.1,30.5,34.8,31.3,26.4,81,60,37,30.35,30.17,11,2,11,0.00
2013-1-8,50.9,43.8,34.9,41.6,35.7,29.3,75,65,53,30.40,30.28,8,2,8,0.00
2013-1-9,62.2,54.4,48.3,53.9,48.6,40.7,87,76,66,30.43,30.33,5,0,5,0.00
2013-1-10,64.8,58.6,54.0,56.4,53.2,50.8,94,78,64,30.43,30.23,11,3,11,0.01
2013-1-11,63.7,60.5,56.8,63.5,60.1,55.5,99,98,94,30.25,30.08,13,2,13,0.38
2013-1-12,69.1,61.8,57.7,64.5,60.0,57.3,100,93,75,30.14,30.03,10,1,10,0.01
2013-1-13,68.1,62.2,58.4,62.6,59.1,56.1,94,87,74,30.09,29.99,13,1,13,0.03
2013-1-14,63.5,59.2,53.3,63.3,58.7,52.9,99,97,93,30.09,29.98,13,2,13,0.70
2013-1-15,61.9,56.9,52.5,61.8,56.6,52.1,100,98,98,30.06,29.91,5,0,5,0.81
2013-1-16,62.0,55.9,52.8,61.8,55.6,52.4,99,99,98,29.95,29.85,6,1,6,0.77
2013-1-17,55.5,49.4,36.6,55.3,49.0,35.9,99,98,94,30.17,29.58,31,4,31,1.07
2013-1-18,51.1,39.9,31.5,36.2,31.9,28.7,95,68,35,30.46,30.18,8,2,8,0.00
2013-1-19,49.7,38.3,30.7,36.5,30.2,27.3,83,66,41,30.43,30.17,11,1,11,0.00
2013-1-20,59.2,44.2,31.0,44.1,35.1,27.8,84,64,36,30.17,30.02,22,6,22,0.00
2013-1-21,55.3,41.7,30.2,38.8,30.6,21.8,86,58,36,30.08,29.97,29,8,29,0.00
2013-1-22,43.3,34.2,28.5,22.4,18.0,13.9,52,39,27,30.24,30.05,27,10,27,0.00
2013-1-23,46.7,37.1,28.2,34.7,25.1,16.6,71,51,40,30.31,30.09,31,6,31,0.00
2013-1-24,50.0,43.9,33.8,41.3,27.7,14.6,76,45,18,30.36,30.02,26,9,26,0.00
2013-1-25,35.9,29.8,27.2,34.0,20.7,11.7,90,61,33,30.40,30.06,14,3,14,0.01
2013-1-26,53.3,41.2,35.2,41.5,36.0,29.4,94,77,50,30.24,30.04,16,6,16,0.03
2013-1-27,47.4,40.5,33.7,36.1,32.5,27.9,78,65,53,30.47,30.23,14,3,14,0.00
2013-1-28,50.5,44.8,41.0,45.4,38.5,32.4,90,72,61,30.41,30.24,8,1,8,0.00
2013-1-29,67.1,54.3,41.8,59.0,51.4,39.6,96,87,68,30.25,29.94,6,0,6,0.02
2013-1-30,65.0,57.3,41.8,63.3,55.9,39.0,97,93,85,29.94,29.44,39,8,39,1.28
2013-1-31,45.5,38.9,33.6,38.6,29.2,26.3,85,59,39,30.07,29.66,40,15,40,0.00
2013-2-1,39.3,34.6,27.6,30.0,19.6,12.6,67,43,21,30.32,29.99,29,10,29,0.00
2013-2-2,45.4,32.9,21.6,36.5,23.3,14.8,92,61,25,30.31,30.04,26,3,26,0.25
2013-2-3,48.9,40.0,32.3,38.9,33.4,28.7,92,72,45,30.05,29.90,31,11,31,0.00
2013-2-4,47.8,38.7,29.6,34.3,29.1,24.1,77,60,40,30.08,29.95,13,2,13,0.00
2013-2-5,54.3,44.7,33.5,46.0,39.0,28.8,91,74,64,29.97,29.89,21,4,21,0.00
2013-2-6,63.6,48.2,33.5,44.2,37.0,31.2,96,62,27,30.13,29.97,13,2,13,0.00
2013-2-7,49.5,45.8,42.0,44.5,38.7,32.1,92,71,43,30.13,29.89,13,4,13,0.21
2013-2-8,54.3,46.8,38.1,49.6,42.4,32.2,96,81,51,30.10,29.84,18,5,18,0.02
2013-2-9,57.3,42.9,29.2,35.7,30.6,26.1,86,56,24,30.26,30.07,10,2,10,0.00
2013-2-10,55.4,46.5,40.8,46.0,37.6,30.3,95,65,42,30.33,30.07,13,4,13,1.25
2013-2-11,53.8,50.1,46.4,53.6,49.6,45.4,99,97,94,30.08,29.98,16,4,16,0.28
2013-2-12,55.9,48.0,43.2,47.0,41.3,34.7,94,73,36,30.05,29.79,11,3,11,0.19
2013-2-13,47.7,43.1,37.3,47.0,40.7,32.6,97,89,76,29.87,29.66,27,7,27,0.03
2013-2-14,53.4,41.4,31.4,41.2,34.5,28.8,89,71,47,30.00,29.86,16,5,16,0.00
2013-2-15,58.4,44.1,31.3,42.2,35.5,28.3,87,66,38,30.05,29.91,21,6,21,0.00
2013-2-16,40.8,36.4,28.8,34.4,25.1,16.0,74,54,32,30.04,29.85,29,10,29,0.00
2013-2-17,42.6,32.8,23.9,21.0,16.3,11.4,56,38,24,30.22,30.03,27,9,27,0.00
2013-2-18,55.5,38.8,24.7,34.0,25.6,17.8,70,50,31,30.32,30.11,14,2,14,0.00
2013-2-19,51.2,42.3,37.1,44.5,33.8,22.4,94,66,36,30.11,29.91,39,7,39,0.29
2013-2-20,53.9,40.5,31.2,25.4,20.7,16.3,50,34,15,30.10,30.01,21,8,21,0.00
2013-2-21,58.6,44.3,30.3,41.4,27.2,20.1,80,42,22,30.15,29.90,21,3,21,0.13
2013-2-22,43.1,39.6,37.4,39.9,38.1,35.7,95,92,81,30.17,29.98,14,6,14,1.26
2013-2-23,48.5,43.9,39.8,46.9,43.0,38.8,98,95,91,30.02,29.76,11,1,11,0.38
2013-2-24,62.5,48.7,37.7,46.8,38.9,30.2,96,66,27,29.96,29.81,14,5,14,0.00
2013-2-25,50.1,43.3,37.1,36.6,32.4,29.0,89,57,43,30.02,29.82,21,7,21,0.01
2013-2-26,43.3,38.5,34.8,42.7,37.0,33.2,97,93,81,29.83,29.49,22,8,22,0.98
2013-2-27,53.6,45.0,38.6,41.1,36.8,33.1,81,66,48,29.79,29.66,26,13,26,0.00
2013-2-28,45.9,40.0,34.9,37.5,30.6,26.5,65,60,49,29.90,29.73,29,13,29,0.00
2013-3-1,42.1,37.5,33.5,32.7,29.8,26.1,74,65,57,29.90,29.84,21,9,21,0.00
2013-3-2,42.2,36.2,31.9,31.1,28.9,24.2,81,67,50,29.93,29.81,24,10,24,0.00
2013-3-3,39.3,32.8,28.0,25.2,21.6,19.6,63,52,38,29.98,29.88,26,11,26,0.00
2013-3-4,56.7,40.8,27.3,34.5,26.2,19.3,64,46,28,30.11,29.96,16,4,16,0.00
2013-3-5,59.8,46.4,37.4,54.1,40.9,29.8,92,75,59,30.01,29.56,40,8,40,0.15
2013-3-6,38.6,34.6,30.9,30.6,27.3,23.3,81,66,54,30.11,29.76,34,17,34,0.00
2013-3-7,57.9,41.2,29.4,39.8,31.6,25.6,83,62,37,30.20,30.06,22,6,22,0.00
2013-3-8,61.7,44.5,28.9,37.7,30.8,24.7,82,52,27,30.28,30.14,11,2,11,0.00
2013-3-9,60.0,48.5,37.9,37.6,32.7,26.9,61,44,31,30.31,30.17,10,1,10,0.00
2013-3-10,65.3,55.7,46.7,44.4,39.4,34.4,57,45,32,30.21,30.06,16,4,16,0.00
2013-3-11,60.6,54.4,51.2,55.2,50.3,44.4,97,82,57,30.07,29.73,13,3,13,1.18
2013-3-12,59.2,49.2,38.4,52.8,40.0,32.5,97,67,31,30.03,29.72,26,10,26,0.03
2013-3-13,51.8,43.0,35.5,34.3,29.9,22.5,72,51,30,30.18,30.01,47,12,47,0.00
2013-3-14,54.5,40.0,28.5,29.6,22.3,17.8,62,40,17,30.31,30.15,19,7,19,0.00
2013-3-15,69.9,52.3,33.6,47.7,38.1,24.9,80,51,34,30.17,29.92,26,8,26,0.00
2013-3-16,73.2,61.8,52.2,51.7,46.1,43.2,64,48,30,29.94,29.80,35,10,35,0.00
2013-3-17,69.5,60.7,51.8,55.4,49.2,43.0,73,58,46,29.95,29.84,21,6,21,0.00
2013-3-18,57.5,48.0,43.4,52.0,45.0,42.0,96,86,66,29.99,29.75,13,4,13,0.70
2013-3-19,61.9,50.7,40.0,45.1,37.5,27.0,97,59,24,30.03,29.82,24,8,24,0.00
2013-3-20,56.9,46.9,37.5,31.3,27.1,23.0,66,36,23,30.08,29.81,37,7,37,0.00
2013-3-21,47.0,38.6,30.2,30.8,20.8,12.0,58,38,22,29.89,29.79,27,10,27,0.00
2013-3-22,50.8,41.9,33.8,35.2,27.3,17.7,57,45,33,30.00,29.87,10,1,10,0.00
2013-3-23,52.1,46.1,41.0,48.3,42.1,34.7,94,82,56,29.97,29.75,8,1,8,0.63
2013-3-24,49.7,46.4,41.2,45.5,44.3,35.1,96,90,72,29.78,29.42,48,6,48,0.99
2013-3-25,41.0,36.8,32.6,35.4,28.3,24.7,74,62,50,29.96,29.55,40,19,40,0.00
2013-3-26,40.9,35.6,30.8,29.0,26.7,24.6,73,61,46,30.21,29.91,31,12,31,0.00
2013-3-27,54.4,41.0,28.6,33.0,27.4,23.1,74,50,29,30.27,30.15,22,8,22,0.00
2013-3-28,59.1,45.3,30.5,35.8,29.2,24.2,71,44,25,30.29,30.17,26,6,26,0.00
2013-3-29,63.6,48.8,32.9,40.9,34.0,27.5,76,49,28,30.33,30.15,13,2,13,0.00
2013-3-30,69.3,56.2,45.7,53.6,44.4,38.3,92,58,34,30.17,29.97,19,2,19,0.28
2013-3-31,63.4,57.8,54.2,59.5,55.1,52.7,96,88,72,30.00,29.80,26,6,26,0.62
2013-4-1,69.8,59.5,51.6,55.3,49.2,42.9,95,65,34,29.98,29.79,27,8,27,0.00
2013-4-2,66.0,54.2,45.2,43.1,36.4,29.1,62,42,24,30.13,29.97,19,7,19,0.00
2013-4-3,59.4,52.5,45.5,44.8,35.3,30.3,85,43,28,30.18,30.03,11,3,11,0.17
2013-4-4,46.4,42.1,38.5,43.0,38.8,35.8,93,84,61,30.16,29.89,19,6,19,0.21
2013-4-5,66.7,51.0,39.9,50.8,42.6,38.2,95,70,27,30.02,29.85,18,4,18,0.00
2013-4-6,71.0,56.5,39.3,47.2,40.3,34.3,81,48,27,30.18,30.02,10,2,10,0.00
2013-4-7,73.7,59.9,45.7,53.9,46.1,38.4,72,52,36,30.19,30.04,13,2,13,0.00
2013-4-8,78.0,64.8,54.0,58.7,53.4,47.7,81,60,39,30.14,30.03,19,3,19,0.00
2013-4-9,81.6,67.0,53.9,62.3,56.4,50.2,87,63,40,30.19,30.06,13,2,13,0.00
2013-4-10,83.2,68.4,55.0,63.5,57.7,51.2,87,64,41,30.12,29.91,14,2,14,0.00
2013-4-11,77.9,67.5,58.4,68.7,60.5,54.3,92,74,54,29.92,29.62,18,2,18,1.17
2013-4-12,68.8,62.5,54.9,62.2,52.6,41.3,96,67,33,29.86,29.59,29,10,29,0.16
2013-4-13,76.2,62.6,51.7,47.0,42.1,39.8,61,39,21,29.99,29.84,18,6,18,0.00
2013-4-14,62.6,56.2,49.2,54.5,47.1,39.7,92,65,43,30.03,29.89,11,1,11,0.10
2013-4-15,73.2,62.2,54.4,61.7,57.1,52.6,96,80,57,30.14,29.88,6,1,6,0.03
2013-4-16,78.0,67.2,59.8,65.0,60.9,56.4,94,76,55,30.27,30.14,8,1,8,0.00
2013-4-17,83.7,70.0,62.4,68.1,62.5,59.4,89,73,48,30.23,30.06,11,2,11,0.00
2013-4-18,79.4,69.3,62.0,64.7,61.5,59.3,91,72,51,30.09,29.90,10,2,10,0.00
2013-4-19,68.5,59.0,46.5,64.8,55.2,39.1,93,84,68,29.95,29.71,24,6,24,0.60
2013-4-20,64.6,51.7,40.9,41.3,36.1,30.9,71,47,23,30.20,29.95,18,4,18,0.00
2013-4-21,67.1,55.5,44.5,45.3,40.8,35.8,70,50,32,30.33,30.20,10,3,10,0.00
2013-4-22,68.9,56.9,47.3,50.4,44.4,39.6,70,55,40,30.32,30.13,10,3,10,0.00
2013-4-23,72.7,58.3,45.7,53.4,45.4,36.8,71,54,39,30.22,30.04,8,1,8,0.00
2013-4-24,72.8,60.6,51.8,60.2,55.0,48.0,93,78,53,30.09,30.02,16,2,16,0.12
2013-4-25,72.4,57.9,44.2,58.4,43.3,34.6,92,57,18,30.27,30.06,14,4,14,0.00
2013-4-26,72.3,58.3,42.6,51.9,42.7,33.9,73,48,31,30.39,30.24,8,2,8,0.00
2013-4-27,60.6,55.7,53.2,55.2,52.6,48.2,95,87,57,30.35,30.16,8,2,8,0.89
2013-4-28,55.4,53.9,51.8,55.0,53.3,51.2,98,97,93,30.21,29.98,5,1,5,2.21
2013-4-29,71.1,59.6,53.9,61.1,56.3,52.4,99,87,55,30.02,29.88,8,1,8,0.00
2013-4-30,76.2,62.9,51.2,63.1,56.7,48.5,94,77,49,30.09,29.92,5,1,5,0.00
2013-5-1,68.0,62.5,58.7,58.4,56.2,54.2,90,75,61,30.20,30.09,11,3,11,0.00
2013-5-2,63.3,59.6,58.2,57.9,55.7,54.0,87,83,76,30.21,30.12,11,4,11,0.00
2013-5-3,59.6,57.3,56.2,56.4,54.8,53.0,95,89,74,30.13,29.96,10,4,10,0.08
2013-5-4,56.5,52.1,48.7,54.2,50.3,46.9,97,92,71,29.96,29.80,11,5,11,1.27
2013-5-5,56.9,53.4,49.7,56.5,52.8,48.9,98,97,95,29.80,29.69,16,3,16,1.27
2013-5-6,53.7,50.1,44.9,51.8,48.7,44.2,98,94,82,29.85,29.71,6,0,6,0.06
2013-5-7,67.9,57.3,48.7,57.6,52.8,47.9,98,82,58,29.93,29.80,11,2,11,0.14
2013-5-8,74.1,62.5,53.0,60.9,55.7,50.6,91,75,52,30.03,29.89,16,3,16,0.00
2013-5-9,79.9,65.9,53.8,63.4,57.7,51.2,94,71,43,30.09,29.99,14,2,14,0.00
2013-5-10,76.6,65.9,55.3,64.8,59.5,52.5,91,76,52,30.08,29.92,11,1,11,0.00
2013-5-11,75.7,66.3,59.2,65.1,60.9,56.0,91,79,60,29.96,29.82,18,3,18,0.04
2013-5-12,71.0,60.6,51.7,60.0,48.1,37.9,91,59,27,30.06,29.87,24,4,24,0.00
2013-5-13,70.0,56.2,42.0,44.1,39.8,36.3,76,47,25,30.19,30.04,16,4,16,0.00
2013-5-14,77.4,60.0,42.0,58.3,48.3,37.8,82,59,39,30.24,30.08,11,2,11,0.00
2013-5-15,85.9,71.6,59.2,63.9,58.2,53.5,76,57,34,30.12,29.99,14,4,14,0.00
2013-5-16,81.1,68.6,59.5,67.1,60.7,55.3,84,71,48,30.08,29.96,6,1,6,0.00
2013-5-17,78.2,67.0,59.1,68.9,61.4,55.6,93,79,49,30.14,29.98,220,6,220,0.02
2013-5-18,72.9,66.5,63.1,66.6,64.4,62.2,97,91,73,30.09,30.01,5,0,5,0.20
2013-5-19,67.7,65.5,63.1,67.7,65.1,62.9,100,98,94,30.10,29.96,220,1,220,3.32
2013-5-20,83.0,69.7,60.3,73.2,66.0,34.8,100,87,20,30.10,29.98,6,0,6,0.03
2013-5-21,86.5,74.3,66.0,72.0,68.3,64.3,97,79,51,30.04,29.89,8,1,8,0.02
2013-5-22,82.2,71.4,64.1,72.5,66.4,62.0,94,81,59,29.99,29.82,6,0,6,0.00
2013-5-23,81.3,71.9,65.7,67.1,63.8,56.8,98,73,47,29.94,29.87,22,5,22,0.67
2013-5-24,75.5,66.1,58.1,57.5,52.3,45.5,76,55,32,30.19,29.94,19,6,19,0.00
2013-5-25,77.7,63.1,47.9,55.9,48.7,42.3,80,53,32,30.30,30.15,11,2,11,0.00
2013-5-26,79.7,65.4,52.2,60.1,52.4,46.2,80,57,34,30.26,30.13,8,1,8,0.00
2013-5-27,83.3,69.2,57.5,65.9,59.3,52.6,83,66,42,30.25,30.09,6,0,6,0.00
2013-5-28,81.9,72.3,63.6,66.8,63.1,59.3,86,68,46,30.21,30.12,8,1,8,0.00
2013-5-29,79.9,70.7,61.7,67.3,63.2,58.0,89,73,55,30.24,30.13,5,1,5,0.00
2013-5-30,78.5,70.9,63.6,67.7,64.6,60.2,92,76,59,30.27,30.13,5,0,5,0.00
2013-5-31,81.7,72.7,65.7,68.8,66.0,62.2,90,75,57,30.22,30.08,6,1,6,0.00
2013-6-1,81.3,73.2,66.8,70.6,67.1,63.1,89,77,62,30.11,29.97,5,0,5,0.00
2013-6-2,82.4,71.7,66.6,72.3,68.0,65.2,95,86,64,30.00,29.84,10,0,10,0.31
2013-6-3,82.9,72.0,65.3,72.6,67.5,64.2,98,84,55,29.95,29.83,10,1,10,0.03
2013-6-4,84.8,73.4,62.5,71.0,65.8,59.3,89,73,49,30.01,29.91,6,0,6,0.00
2013-6-5,80.5,72.3,66.0,72.1,67.8,64.5,94,83,67,30.04,29.89,5,1,5,0.63
2013-6-6,74.7,68.6,64.7,71.7,67.1,63.8,98,94,83,29.92,29.72,2,0,2,0.02
2013-6-7,82.0,71.2,67.1,71.8,67.7,64.1,95,87,62,29.81,29.63,14,2,14,0.72
2013-6-8,80.4,71.0,62.4,71.1,66.2,61.1,96,82,60,30.07,29.80,11,2,11,0.00
2013-6-9,81.4,72.2,67.3,73.0,68.7,65.2,97,87,65,30.10,29.99,6,0,6,0.49
2013-6-10,76.9,70.7,65.5,70.9,68.4,64.2,98,91,73,30.03,29.91,190,2,190,0.37
2013-6-11,85.9,76.9,70.7,75.1,71.6,69.3,97,81,58,30.02,29.93,19,4,19,0.26
2013-6-12,90.5,79.6,69.9,78.2,72.5,67.5,91,76,55,30.06,29.95,11,2,11,0.00
2013-6-13,88.3,77.5,69.7,76.6,71.9,67.2,96,80,55,29.96,29.70,18,5,18,0.91
2013-6-14,82.8,72.5,64.1,69.6,65.5,62.3,96,76,50,30.00,29.79,6,0,6,0.00
2013-6-15,81.8,72.0,62.5,68.7,63.3,57.9,84,69,49,30.13,30.00,3,0,3,0.00
2013-6-16,85.2,73.3,62.4,72.2,66.5,59.8,91,76,52,30.16,30.00,6,1,6,0.05
2013-6-17,82.8,72.8,68.0,74.6,69.3,66.3,97,86,68,30.08,29.93,8,1,8,0.55
2013-6-18,80.9,72.4,68.9,73.7,69.5,67.4,96,88,72,29.94,29.80,14,2,14,0.48
2013-6-19,79.0,72.4,68.2,70.7,68.1,66.0,95,83,68,30.09,29.86,3,0,3,0.00
2013-6-20,80.3,72.6,65.8,69.9,67.1,63.4,94,79,60,30.20,30.08,5,1,5,0.00
2013-6-21,81.2,72.3,66.0,69.1,66.0,63.3,91,77,56,30.26,30.15,5,0,5,0.00
2013-6-22,81.7,72.6,64.6,68.6,65.1,61.9,90,74,51,30.24,30.09,5,0,5,0.00
2013-6-23,82.5,73.4,64.9,72.8,67.6,61.9,90,78,63,30.20,30.09,5,0,5,0.00
2013-6-24,84.2,76.3,70.1,74.0,70.4,67.7,93,79,62,30.24,30.10,10,1,10,0.01
2013-6-25,82.2,73.9,68.3,75.5,70.2,65.7,93,86,64,30.17,30.02,10,1,10,0.26
2013-6-26,85.0,75.9,69.2,76.0,71.6,67.3,97,84,66,30.07,29.91,11,1,11,0.00
2013-6-27,84.2,77.7,73.1,75.5,72.5,70.3,91,81,66,29.97,29.77,21,4,21,0.00
2013-6-28,90.5,77.1,70.0,76.4,71.4,68.8,95,80,48,29.82,29.60,18,3,18,0.75
2013-6-29,84.2,74.1,66.5,72.7,68.5,64.9,96,80,51,29.68,29.61,11,1,11,0.00
2013-6-30,82.6,72.7,64.1,71.0,66.5,61.3,89,77,53,29.77,29.65,6,0,6,0.00
2013-7-1,81.9,71.2,67.8,71.3,67.6,64.9,96,86,61,29.91,29.75,16,0,16,0.63
2013-7-2,82.1,73.1,67.8,72.6,69.6,66.7,97,87,58,30.08,29.89,6,0,6,0.03
2013-7-3,73.2,69.4,66.2,73.0,68.6,65.7,99,97,91,30.17,30.06,13,0,13,2.41
2013-7-4,73.7,69.1,66.0,73.7,68.5,0.0,100,98,60,30.19,30.10,6,0,6,0.67
2013-7-5,77.6,72.0,68.6,73.0,70.5,39.1,100,94,20,30.22,30.13,3,0,3,0.52
2013-7-6,79.9,72.1,67.8,74.8,70.3,0.0,100,94,20,30.18,30.06,10,0,10,0.31
2013-7-7,77.6,73.0,70.0,73.4,70.7,38.0,100,92,20,30.17,30.09,3,0,3,0.02
2013-7-8,87.0,75.7,70.9,75.8,72.3,70.0,99,87,62,30.20,30.09,8,1,8,0.41
2013-7-9,86.5,75.9,70.8,77.7,72.8,38.9,100,89,20,30.18,30.05,6,1,6,0.00
2013-7-10,83.3,74.8,71.4,77.2,72.9,48.6,100,93,33,30.11,29.94,6,0,6,0.77
2013-7-11,78.6,74.0,71.1,74.3,72.0,70.4,100,92,80,29.96,29.84,3,0,3,0.02
2013-7-12,84.4,73.3,67.9,75.6,70.9,66.0,99,91,69,29.94,29.84,13,0,13,0.53
2013-7-13,75.0,70.5,67.2,70.4,68.1,65.7,97,90,80,30.06,29.93,11,1,11,0.05
2013-7-14,76.1,71.7,69.5,74.8,70.0,37.4,100,95,20,30.24,30.04,6,1,6,0.24
2013-7-15,80.3,73.8,69.4,73.8,70.2,0.0,100,88,20,30.31,30.21,6,1,6,0.01
2013-7-16,85.0,76.4,69.8,74.8,71.6,68.8,100,83,61,30.34,30.24,3,0,3,0.00
2013-7-17,88.8,75.8,68.6,77.7,70.9,66.9,97,83,57,30.32,30.14,19,1,19,1.80
2013-7-18,84.4,74.8,67.5,75.7,71.3,67.3,100,87,64,30.24,30.05,5,0,5,0.00
2013-7-19,87.8,76.6,70.4,77.2,72.2,68.6,98,84,57,30.13,29.96,8,1,8,0.97
2013-7-20,82.7,73.4,69.4,76.1,71.1,59.7,100,91,60,30.04,29.92,8,0,8,0.00
2013-7-21,85.4,75.7,69.1,76.3,71.5,67.7,99,85,66,30.02,29.89,11,1,11,0.12
2013-7-22,79.9,73.3,69.6,75.8,71.4,68.9,99,92,77,30.01,29.84,13,2,13,0.53
2013-7-23,79.4,73.6,68.8,73.9,70.7,68.4,100,89,71,29.95,29.80,16,4,16,0.00
2013-7-24,84.9,73.9,69.4,76.0,70.8,66.8,98,88,64,29.85,29.77,8,2,8,1.10
2013-7-25,84.3,72.6,67.0,73.9,68.7,36.5,100,86,20,29.99,29.81,8,0,8,0.00
2013-7-26,82.2,72.1,66.6,74.6,69.4,64.9,98,89,70,30.07,29.96,10,0,10,0.93
2013-7-27,77.2,72.7,68.9,74.2,69.9,0.0,100,90,20,30.00,29.88,8,0,8,0.00
2013-7-28,84.0,73.9,66.3,73.1,69.2,64.9,99,83,59,30.03,29.90,13,1,13,0.00
2013-7-29,83.3,72.5,65.9,70.4,66.2,62.5,92,78,46,30.15,30.01,8,1,8,0.00
2013-7-30,84.1,72.0,61.4,73.9,66.1,58.2,88,78,60,30.21,30.10,3,0,3,0.00
2013-7-31,75.5,73.1,71.0,72.5,70.8,69.2,97,91,82,30.14,29.95,5,0,5,0.04
2013-8-1,84.4,74.3,68.5,75.9,71.3,36.2,100,89,20,29.98,29.87,10,1,10,0.31
2013-8-2,85.2,74.4,66.3,73.7,69.3,64.8,96,82,52,30.03,29.90,5,0,5,0.00
2013-8-3,82.1,74.5,66.4,73.0,69.1,63.8,91,80,63,30.05,29.98,13,1,13,0.00
2013-8-4,85.8,77.1,70.6,73.3,70.4,66.1,92,77,56,30.02,29.93,10,2,10,0.00
2013-8-5,84.0,74.4,67.4,74.0,68.7,63.5,89,79,60,30.05,29.95,5,0,5,0.00
2013-8-6,83.1,76.7,72.1,74.5,71.9,68.8,94,82,63,30.00,29.93,10,0,10,0.01
2013-8-7,75.4,72.9,70.3,75.4,72.1,38.6,100,97,20,30.06,29.98,3,0,3,1.82
2013-8-8,76.4,73.5,71.2,76.4,73.0,0.0,100,98,20,30.06,30.00,3,0,3,1.04
2013-8-9,85.5,76.7,70.9,77.9,73.6,37.9,100,89,20,30.09,30.00,6,0,6,0.21
2013-8-10,87.2,77.0,72.3,77.2,73.6,0.0,100,88,62,30.13,30.04,11,1,11,0.08
2013-8-11,86.9,76.4,69.1,76.8,72.7,37.2,100,87,60,30.16,30.05,10,1,10,0.00
2013-8-12,87.4,76.1,70.3,76.9,72.4,68.7,98,86,62,30.11,29.97,6,1,6,0.00
2013-8-13,84.0,76.6,71.7,74.9,72.2,70.5,97,84,66,30.00,29.84,13,3,13,3.15
2013-8-14,76.9,73.4,70.5,71.7,69.6,66.6,91,85,75,30.02,29.86,5,0,5,0.00
2013-8-15,70.5,67.9,65.7,67.0,62.4,59.7,87,78,65,30.09,30.00,10,2,10,0.00
2013-8-16,68.1,65.3,62.7,63.4,60.7,58.8,86,81,74,30.11,30.02,10,2,10,0.00
2013-8-17,65.4,64.1,63.0,64.3,61.0,0.0,100,88,20,30.14,30.06,6,1,6,0.28
2013-8-18,70.0,66.6,63.9,70.0,66.6,63.9,100,100,100,30.20,30.09,5,0,5,0.72
2013-8-19,71.5,68.9,66.6,71.5,68.7,36.3,100,99,20,30.16,30.06,3,0,3,2.05
2013-8-20,75.5,71.2,67.5,72.3,69.9,67.5,100,95,85,30.19,30.08,5,0,5,0.00
2013-8-21,76.8,72.3,70.2,73.7,70.9,37.7,100,95,20,30.25,30.11,2,0,2,0.19
2013-8-22,83.3,72.5,68.5,75.1,70.6,36.3,100,93,20,30.17,30.03,8,0,8,0.54
2013-8-23,83.6,73.3,65.7,76.2,70.5,65.7,100,90,62,30.08,29.95,8,1,8,0.00
2013-8-24,78.2,71.4,67.0,70.3,67.5,65.2,97,85,69,30.27,30.04,8,1,8,0.00
2013-8-25,76.6,69.3,62.1,66.6,63.3,58.9,92,78,59,30.38,30.26,5,1,5,0.00
2013-8-26,78.7,69.0,61.0,69.5,64.3,58.8,94,82,62,30.33,30.14,3,0,3,0.00
2013-8-27,82.6,71.2,62.5,72.4,66.5,60.9,96,83,58,30.17,30.02,3,0,3,0.00
2013-8-28,84.7,72.1,66.3,74.9,69.1,64.9,97,88,66,30.04,29.91,6,0,6,0.00
2013-8-29,87.4,77.5,70.2,76.4,72.3,68.3,94,81,61,29.97,29.89,10,1,10,0.00
2013-8-30,82.8,76.1,72.0,75.9,73.0,70.2,98,88,71,30.04,29.92,5,0,5,0.00
2013-8-31,85.4,74.5,70.2,76.5,72.4,50.0,100,92,33,29.97,29.85,14,1,14,0.60
2013-9-1,81.4,74.0,68.7,75.9,71.7,68.7,100,91,73,29.92,29.82,11,2,11,0.00
2013-9-2,78.9,73.8,70.4,73.9,71.1,59.7,100,89,60,29.95,29.82,14,3,14,0.00
2013-9-3,83.4,75.4,70.5,75.1,71.4,38.3,100,85,20,29.96,29.84,10,1,10,0.00
2013-9-4,81.4,72.6,65.8,73.3,68.2,64.0,98,83,61,30.09,29.95,0,0,0,0.00
2013-9-5,82.5,73.1,66.3,74.0,69.1,64.7,96,85,63,30.14,30.05,5,0,5,0.00
2013-9-6,79.6,71.8,65.8,70.0,67.1,64.4,97,82,62,30.17,30.05,5,1,5,0.00
2013-9-7,81.1,71.3,64.0,71.6,66.5,61.9,96,82,59,30.13,29.99,6,0,6,0.00
2013-9-8,84.3,73.0,64.6,71.9,67.7,62.8,100,81,53,30.01,29.91,10,0,10,0.00
2013-9-9,82.4,73.8,67.3,72.2,68.9,65.2,95,82,62,30.12,29.98,5,0,5,0.00
2013-9-10,82.3,73.8,67.3,73.0,69.5,65.8,99,84,64,30.24,30.12,3,0,3,0.00
2013-9-11,83.5,73.4,66.2,72.9,68.5,64.4,98,82,55,30.24,30.10,3,0,3,0.00
2013-9-12,82.6,72.1,67.5,75.8,69.9,66.1,100,91,64,30.10,29.88,24,1,24,0.40
2013-9-13,80.1,71.6,62.8,71.0,65.8,56.2,100,80,47,29.90,29.78,13,2,13,0.40
2013-9-14,74.2,63.9,54.6,64.5,58.0,52.1,94,77,57,30.06,29.86,5,1,5,0.00
2013-9-15,77.2,68.3,60.9,70.2,64.2,58.9,93,84,67,30.17,30.06,6,1,6,0.00
2013-9-16,80.8,71.2,64.5,70.2,66.0,62.7,99,81,55,30.14,30.04,5,1,5,0.00
2013-9-17,71.2,67.3,64.9,64.5,61.6,59.3,90,78,65,30.26,30.11,8,2,8,0.00
2013-9-18,70.4,65.9,62.5,64.0,60.6,57.7,90,79,69,30.25,30.13,6,0,6,0.00
2013-9-19,78.0,67.4,58.8,69.3,62.9,57.1,97,83,62,30.18,30.06,6,0,6,0.00
2013-9-20,79.9,70.3,62.6,70.5,65.4,61.0,99,82,57,30.08,29.89,6,0,6,0.00
2013-9-21,69.6,67.1,62.7,69.6,65.7,31.3,100,95,20,29.91,29.64,10,0,10,1.12
2013-9-22,74.9,65.0,57.5,66.2,61.3,30.8,100,86,20,29.85,29.70,6,0,6,0.01
2013-9-23,73.1,64.8,59.4,64.5,61.1,58.1,99,85,66,30.01,29.84,2,0,2,0.00
2013-9-24,67.9,64.3,60.5,64.7,62.4,58.6,98,92,82,30.03,29.87,2,0,2,0.07
2013-9-25,64.2,62.6,60.6,64.1,62.6,60.6,100,100,98,29.87,29.79,5,0,5,1.18
2013-9-26,72.6,64.7,57.9,67.1,63.0,57.9,100,93,76,29.99,29.82,0,0,0,0.00
2013-9-27,72.6,64.4,56.6,64.6,60.7,55.5,99,85,64,30.13,29.99,0,0,0,0.00
2013-9-28,69.1,62.5,56.5,60.6,58.4,55.4,97,84,64,30.22,30.09,0,0,0,0.00
2013-9-29,67.8,61.2,54.7,61.0,57.3,53.1,97,84,66,30.14,30.01,0,0,0,0.00
2013-9-30,69.8,61.7,55.7,62.8,58.2,28.4,100,86,20,30.07,29.97,0,0,0,0.00
2013-10-1,74.9,63.3,55.0,65.9,59.7,53.7,97,86,59,30.15,30.03,0,0,0,0.00
2013-10-2,75.9,66.0,57.9,68.2,62.2,55.7,100,85,61,30.15,30.05,0,0,0,0.00
2013-10-3,77.9,68.3,61.1,67.3,63.6,60.0,100,83,53,30.14,30.05,0,0,0,0.00
2013-10-4,77.7,67.5,59.4,68.6,63.5,58.1,100,84,61,30.16,30.07,0,0,0,0.00
2013-10-5,78.7,68.9,61.5,69.2,64.8,60.4,100,85,60,30.12,30.00,0,0,0,0.00
2013-10-6,77.7,68.5,62.1,68.7,65.1,32.3,100,87,20,30.02,29.83,0,0,0,1.11
2013-10-7,72.0,65.6,60.0,66.7,62.5,55.3,100,88,57,29.92,29.77,2,0,2,0.35
2013-10-8,68.8,62.5,58.2,59.0,57.0,53.6,97,78,60,30.14,29.91,10,2,10,0.00
2013-10-9,68.2,60.2,52.1,60.0,53.7,48.2,91,74,53,30.19,30.08,6,1,6,0.01
2013-10-10,73.7,61.2,51.3,61.1,55.6,49.7,100,79,53,30.10,29.97,14,2,14,0.00
2013-10-11,75.6,63.2,54.2,62.3,56.6,52.3,94,76,49,30.02,29.91,14,2,14,0.00
2013-10-12,75.9,63.6,53.7,63.8,58.1,51.8,97,79,55,30.08,29.95,6,1,6,0.00
2013-10-13,74.7,65.0,56.8,67.6,61.3,54.9,97,85,63,30.18,30.06,3,0,3,0.00
2013-10-14,69.8,65.2,60.8,64.5,62.4,59.9,100,89,76,30.21,30.10,2,0,2,0.00
2013-10-15,63.4,61.8,58.5,62.4,59.7,29.8,100,92,20,30.14,30.03,0,0,0,0.01
2013-10-16,69.0,62.4,57.6,63.9,60.1,0.0,100,91,60,30.05,29.93,2,0,2,0.00
2013-10-17,66.8,63.6,60.2,66.8,63.3,31.5,100,99,20,29.95,29.84,0,0,0,0.47
2013-10-18,67.9,59.4,53.0,61.0,56.9,0.0,100,91,20,29.98,29.87,0,0,0,0.00
2013-10-19,61.0,56.9,54.0,57.8,55.3,25.4,100,93,20,29.93,29.85,10,1,10,0.02
2013-10-20,64.3,52.7,43.9,53.1,47.2,42.6,96,79,35,30.03,29.92,5,0,5,0.00
2013-10-21,64.1,54.0,45.0,58.2,51.3,43.0,100,88,60,30.10,29.97,6,0,6,0.00
2013-10-22,67.5,59.1,55.5,58.8,55.0,25.6,100,85,20,30.00,29.78,10,1,10,0.02
2013-10-23,57.9,52.0,43.1,51.4,44.3,35.9,90,69,46,30.02,29.74,34,6,34,0.00
2013-10-24,59.8,48.1,39.2,45.8,40.4,35.4,85,69,45,30.15,30.01,16,2,16,0.00
2013-10-25,54.9,44.6,34.7,42.1,33.8,28.7,80,59,27,30.33,30.14,8,2,8,0.00
2013-10-26,55.1,43.1,33.1,42.9,36.1,29.8,85,70,45,30.31,30.10,8,1,8,0.00
2013-10-27,63.9,52.5,40.5,54.4,46.9,37.6,89,76,63,30.12,30.03,11,2,11,0.00
2013-10-28,60.6,55.9,52.4,58.8,55.0,43.2,100,96,60,30.26,30.10,6,0,6,0.15
2013-10-29,66.7,57.0,50.0,60.8,54.8,21.2,100,91,20,30.33,30.23,5,0,5,0.00
2013-10-30,72.0,61.4,55.0,62.8,57.2,0.0,100,85,20,30.30,30.14,13,1,13,0.00
2013-10-31,70.4,62.8,56.3,64.9,60.2,56.1,100,89,76,30.16,29.83,13,1,13,0.00
2013-11-1,71.2,64.7,56.7,66.0,58.3,31.7,100,77,20,29.83,29.64,19,4,19,0.26
2013-11-2,64.1,55.0,46.6,51.2,46.5,40.2,94,68,42,30.00,29.74,32,4,32,0.00
2013-11-3,60.7,49.6,41.0,46.6,42.0,38.3,90,70,41,30.29,29.99,6,1,6,0.00
2013-11-4,58.1,48.8,42.3,43.9,40.8,37.7,84,68,45,30.45,30.29,8,2,8,0.00
2013-11-5,60.0,49.2,42.1,45.0,39.2,35.2,80,62,38,30.47,30.33,8,2,8,0.00
2013-11-6,66.8,58.1,50.1,58.0,53.3,45.0,89,80,66,30.34,30.09,5,1,5,0.00
2013-11-7,62.0,55.2,42.7,59.9,49.3,26.3,100,77,20,30.15,29.99,21,5,21,0.08
2013-11-8,59.5,46.1,35.4,37.1,33.5,30.3,83,56,24,30.29,30.14,8,2,8,0.00
2013-11-9,55.6,46.9,39.2,41.7,36.7,30.9,75,59,41,30.33,30.18,6,0,6,0.00
2013-11-10,69.9,55.7,44.4,45.6,39.9,36.6,72,48,24,30.22,30.12,13,4,13,0.00
2013-11-11,60.2,48.8,38.8,41.4,37.3,33.9,79,58,33,30.31,30.14,8,1,8,0.00
2013-11-12,59.7,44.2,31.4,45.8,34.5,19.2,86,61,44,30.40,30.07,24,6,24,0.00
2013-11-13,48.5,35.3,24.2,26.8,21.8,18.5,72,49,24,30.54,30.41,8,1,8,0.00
2013-11-14,54.9,38.8,26.6,31.5,25.7,20.7,73,52,26,30.46,30.28,6,1,6,0.00
2013-11-15,49.0,43.8,34.5,49.0,39.2,19.1,100,80,20,30.29,30.13,3,0,3,0.20
2013-11-16,57.1,53.4,49.0,56.5,53.3,49.0,100,99,95,30.21,30.12,3,0,3,0.00
2013-11-17,59.2,57.9,56.1,59.2,57.7,56.0,100,99,96,30.15,29.88,3,0,3,0.43
2013-11-18,66.4,59.0,50.3,63.6,49.4,36.0,100,68,30,29.99,29.82,19,7,19,0.02
2013-11-19,57.7,48.2,38.5,41.3,36.9,31.7,76,56,40,30.15,29.95,11,1,11,0.00
2013-11-20,52.2,46.0,39.6,36.2,33.9,30.9,64,53,41,30.33,30.15,16,4,16,0.00
2013-11-21,50.4,48.6,46.8,49.7,43.3,20.0,100,78,20,30.41,30.31,11,3,11,0.00
2013-11-22,56.8,53.8,49.5,56.8,53.8,49.5,100,100,100,30.35,30.13,3,0,3,0.05
2013-11-23,57.7,52.2,40.2,56.9,47.4,29.3,100,80,48,30.19,30.06,19,7,19,0.00
2013-11-24,46.3,37.4,29.7,30.5,23.4,19.4,63,46,26,30.44,30.17,11,3,11,0.00
2013-11-25,41.9,35.4,28.6,30.5,20.3,14.2,88,43,28,30.46,30.19,13,3,13,0.04
2013-11-26,48.2,41.5,32.6,48.2,41.2,10.4,100,99,20,30.19,29.52,11,3,11,2.60
2013-11-27,45.4,35.1,26.7,45.4,30.9,19.9,100,80,59,30.17,29.50,34,12,34,0.09
2013-11-28,45.7,32.6,22.4,31.8,24.7,19.2,83,65,43,30.43,30.16,10,2,10,0.00
2013-11-29,56.7,39.5,24.8,34.7,28.6,22.3,89,60,28,30.50,30.39,6,1,6,0.00
2013-11-30,48.4,40.4,34.5,31.5,29.2,26.5,67,55,38,30.55,30.31,18,3,18,0.00
2013-12-1,54.5,45.5,39.5,43.2,36.5,29.6,74,62,52,30.32,29.95,11,2,11,0.00
2013-12-2,49.7,46.4,42.4,49.7,45.0,20.4,100,94,20,29.96,29.75,6,0,6,0.11
2013-12-3,51.9,50.3,48.3,51.9,50.3,48.3,100,100,100,29.87,29.78,5,0,5,0.35
2013-12-4,59.5,55.6,51.9,59.5,55.6,51.9,100,100,100,30.00,29.86,3,0,3,0.13
2013-12-5,66.8,63.1,59.0,66.8,63.1,59.0,100,100,100,30.06,29.95,10,1,10,0.35
2013-12-6,72.1,66.4,59.7,70.4,65.8,34.1,100,98,20,30.02,29.92,22,5,22,0.31
2013-12-7,59.8,51.0,44.3,59.8,49.9,22.3,100,95,20,30.28,29.98,13,5,13,0.03
2013-12-8,49.1,42.4,38.5,47.5,42.1,18.4,100,99,20,30.30,30.17,16,5,16,0.39
2013-12-9,48.0,43.1,38.0,48.0,43.1,38.0,100,100,100,30.19,29.96,6,1,6,1.22
2013-12-10,49.2,43.7,30.5,49.2,40.6,27.2,100,86,58,30.28,29.86,27,7,27,0.17
2013-12-11,50.3,37.2,25.5,35.5,28.3,23.8,93,64,38,30.41,30.26,11,2,11,0.00
2013-12-12,47.3,37.6,31.6,27.9,23.3,19.2,66,46,21,30.39,30.27,19,6,19,0.00
2013-12-13,49.9,37.8,25.4,31.3,25.1,19.4,73,51,30,30.33,30.13,5,1,5,0.00
2013-12-14,46.6,44.5,42.2,46.6,40.6,29.1,100,84,46,30.15,29.74,13,2,13,1.05
2013-12-15,47.8,39.3,30.7,47.8,36.3,28.6,100,86,67,30.11,29.72,26,11,26,0.01
2013-12-16,51.4,38.2,29.0,38.2,31.9,27.6,95,74,42,30.18,30.09,18,5,18,0.00
2013-12-17,56.2,45.0,31.3,41.7,36.1,28.9,90,64,45,30.15,30.01,26,9,26,0.00
2013-12-18,53.0,42.0,34.5,31.5,25.3,19.1,57,41,18,30.27,30.09,19,7,19,0.00
2013-12-19,57.9,42.1,28.3,34.3,28.1,22.4,75,50,25,30.30,30.17,10,1,10,0.00
2013-12-20,56.8,46.1,35.4,48.6,39.4,29.4,87,70,56,30.21,30.10,5,0,5,0.00
2013-12-21,61.1,55.7,49.9,61.1,55.2,47.4,100,98,88,30.10,29.91,5,0,5,0.09
2013-12-22,63.9,58.9,55.8,63.9,58.9,55.8,100,100,100,30.04,29.86,16,1,16,3.49
2013-12-23,56.1,49.2,36.2,56.1,47.6,33.9,100,93,75,30.17,29.97,21,8,21,0.01
2013-12-24,38.7,33.7,27.4,34.0,26.8,20.7,91,69,44,30.34,30.15,22,8,22,0.00
2013-12-25,40.4,32.0,24.4,25.5,22.6,19.6,81,60,39,30.46,30.30,13,2,13,0.00
2013-12-26,53.1,38.3,27.1,34.8,27.4,22.8,85,57,29,30.33,30.20,18,3,18,0.00
2013-12-27,49.8,38.5,30.1,31.4,27.5,25.0,76,56,33,30.44,30.27,8,1,8,0.00
2013-12-28,45.4,37.3,30.2,38.8,32.0,11.2,100,76,20,30.37,29.96,14,2,14,0.53
2013-12-29,50.8,43.8,38.8,50.1,43.1,20.8,100,97,20,29.96,29.76,21,8,21,0.26
2013-12-30,49.0,43.2,39.4,45.4,41.2,39.0,100,90,77,30.14,29.94,19,6,19,0.00
2013-12-31,47.4,39.5,33.6,39.5,31.8,25.7,94,69,34,30.31,30.11,22,6,22,0.00
2014-1-1,47.8,39.3,32.3,37.9,32.4,28.0,84,69,50,30.33,30.08,5,0,5,0.00
2014-1-2,46.2,39.5,24.8,46.2,37.0,12.8,100,88,20,30.08,29.66,37,8,37,0.26